sensor_id;sensor_type;location;lat;lon;timestamp;P1;durP1;ratioP1;P2;durP2;ratioP2
36411;SDS011;22445;52.100;5.176;2024-02-26T00:02:15;8.38;;;2.90;;
36411;SDS011;22445;52.100;5.176;2024-02-26T00:04:41;5.95;;;3.05;;
36411;SDS011;22445;52.100;5.176;2024-02-26T00:07:07;4.95;;;2.90;;
36411;SDS011;22445;52.100;5.176;2024-02-26T00:09:33;4.82;;;3.10;;
36411;SDS011;22445;52.100;5.176;2024-02-26T00:12:04;4.47;;;3.08;;
36411;SDS011;22445;52.100;5.176;2024-02-26T00:14:30;4.18;;;2.63;;
36411;SDS011;22445;52.100;5.176;2024-02-26T00:16:56;3.92;;;3.00;;
36411;SDS011;22445;52.100;5.176;2024-02-26T00:19:22;3.03;;;2.63;;
36411;SDS011;22445;52.100;5.176;2024-02-26T00:21:48;4.40;;;2.58;;
36411;SDS011;22445;52.100;5.176;2024-02-26T00:24:13;4.10;;;3.00;;
36411;SDS011;22445;52.100;5.176;2024-02-26T00:26:39;4.03;;;2.88;;
36411;SDS011;22445;52.100;5.176;2024-02-26T00:29:05;4.07;;;3.08;;
36411;SDS011;22445;52.100;5.176;2024-02-26T00:31:30;4.65;;;2.88;;
36411;SDS011;22445;52.100;5.176;2024-02-26T00:34:00;5.05;;;3.53;;
36411;SDS011;22445;52.100;5.176;2024-02-26T00:36:26;5.22;;;2.92;;
36411;SDS011;22445;52.100;5.176;2024-02-26T00:38:51;3.78;;;3.28;;
36411;SDS011;22445;52.100;5.176;2024-02-26T00:41:17;3.80;;;3.42;;
36411;SDS011;22445;52.100;5.176;2024-02-26T00:43:44;6.50;;;3.58;;
36411;SDS011;22445;52.100;5.176;2024-02-26T00:46:09;6.20;;;3.80;;
36411;SDS011;22445;52.100;5.176;2024-02-26T00:48:35;5.88;;;3.35;;
36411;SDS011;22445;52.100;5.176;2024-02-26T00:51:00;5.47;;;3.40;;
36411;SDS011;22445;52.100;5.176;2024-02-26T00:53:26;6.00;;;3.58;;
36411;SDS011;22445;52.100;5.176;2024-02-26T00:55:52;7.00;;;3.45;;
36411;SDS011;22445;52.100;5.176;2024-02-26T00:58:17;4.63;;;3.80;;
36411;SDS011;22445;52.100;5.176;2024-02-26T01:00:44;4.85;;;3.92;;
36411;SDS011;22445;52.100;5.176;2024-02-26T01:03:09;5.97;;;4.22;;
36411;SDS011;22445;52.100;5.176;2024-02-26T01:05:35;5.90;;;4.32;;
36411;SDS011;22445;52.100;5.176;2024-02-26T01:08:02;6.25;;;4.28;;
36411;SDS011;22445;52.100;5.176;2024-02-26T01:10:28;5.88;;;4.50;;
36411;SDS011;22445;52.100;5.176;2024-02-26T01:12:54;7.15;;;4.40;;
36411;SDS011;22445;52.100;5.176;2024-02-26T01:15:20;5.00;;;4.50;;
36411;SDS011;22445;52.100;5.176;2024-02-26T01:17:49;6.07;;;4.63;;
36411;SDS011;22445;52.100;5.176;2024-02-26T01:20:16;5.72;;;4.80;;
36411;SDS011;22445;52.100;5.176;2024-02-26T01:22:43;5.43;;;4.88;;
36411;SDS011;22445;52.100;5.176;2024-02-26T01:25:09;4.80;;;4.30;;
36411;SDS011;22445;52.100;5.176;2024-02-26T01:27:35;5.78;;;4.70;;
36411;SDS011;22445;52.100;5.176;2024-02-26T01:30:04;7.40;;;4.25;;
36411;SDS011;22445;52.100;5.176;2024-02-26T01:32:31;5.97;;;4.97;;
36411;SDS011;22445;52.100;5.176;2024-02-26T01:34:57;6.00;;;4.88;;
36411;SDS011;22445;52.100;5.176;2024-02-26T01:37:23;7.07;;;5.18;;
36411;SDS011;22445;52.100;5.176;2024-02-26T01:39:48;7.82;;;4.97;;
36411;SDS011;22445;52.100;5.176;2024-02-26T01:42:14;5.60;;;4.97;;
36411;SDS011;22445;52.100;5.176;2024-02-26T01:44:40;5.45;;;4.82;;
36411;SDS011;22445;52.100;5.176;2024-02-26T01:47:07;6.43;;;5.43;;
36411;SDS011;22445;52.100;5.176;2024-02-26T01:49:33;6.35;;;4.88;;
36411;SDS011;22445;52.100;5.176;2024-02-26T01:52:00;5.32;;;4.80;;
36411;SDS011;22445;52.100;5.176;2024-02-26T01:54:27;5.55;;;4.72;;
36411;SDS011;22445;52.100;5.176;2024-02-26T01:56:53;4.90;;;4.30;;
36411;SDS011;22445;52.100;5.176;2024-02-26T01:59:18;5.43;;;4.90;;
36411;SDS011;22445;52.100;5.176;2024-02-26T02:01:44;6.82;;;4.97;;
36411;SDS011;22445;52.100;5.176;2024-02-26T02:04:14;7.57;;;5.60;;
36411;SDS011;22445;52.100;5.176;2024-02-26T02:06:40;5.40;;;4.60;;
36411;SDS011;22445;52.100;5.176;2024-02-26T02:09:07;7.60;;;4.90;;
36411;SDS011;22445;52.100;5.176;2024-02-26T02:11:33;7.25;;;4.95;;
36411;SDS011;22445;52.100;5.176;2024-02-26T02:13:59;6.32;;;4.45;;
36411;SDS011;22445;52.100;5.176;2024-02-26T02:16:25;6.72;;;5.03;;
36411;SDS011;22445;52.100;5.176;2024-02-26T02:18:51;6.28;;;4.65;;
36411;SDS011;22445;52.100;5.176;2024-02-26T02:21:16;6.68;;;5.47;;
36411;SDS011;22445;52.100;5.176;2024-02-26T02:23:42;5.93;;;5.10;;
36411;SDS011;22445;52.100;5.176;2024-02-26T02:26:11;6.75;;;5.45;;
36411;SDS011;22445;52.100;5.176;2024-02-26T02:28:38;7.63;;;5.15;;
36411;SDS011;22445;52.100;5.176;2024-02-26T02:31:04;8.48;;;6.15;;
36411;SDS011;22445;52.100;5.176;2024-02-26T02:33:29;6.10;;;5.15;;
36411;SDS011;22445;52.100;5.176;2024-02-26T02:35:55;7.45;;;5.40;;
36411;SDS011;22445;52.100;5.176;2024-02-26T02:38:21;7.05;;;5.35;;
36411;SDS011;22445;52.100;5.176;2024-02-26T02:40:46;8.35;;;6.15;;
36411;SDS011;22445;52.100;5.176;2024-02-26T02:43:12;6.47;;;5.38;;
36411;SDS011;22445;52.100;5.176;2024-02-26T02:45:38;8.75;;;5.65;;
36411;SDS011;22445;52.100;5.176;2024-02-26T02:48:03;6.70;;;5.63;;
36411;SDS011;22445;52.100;5.176;2024-02-26T02:50:29;7.72;;;5.03;;
36411;SDS011;22445;52.100;5.176;2024-02-26T02:52:55;6.85;;;5.95;;
36411;SDS011;22445;52.100;5.176;2024-02-26T02:55:21;8.48;;;5.50;;
36411;SDS011;22445;52.100;5.176;2024-02-26T02:57:46;8.15;;;6.00;;
36411;SDS011;22445;52.100;5.176;2024-02-26T03:00:12;7.50;;;5.70;;
36411;SDS011;22445;52.100;5.176;2024-02-26T03:02:38;6.65;;;5.40;;
36411;SDS011;22445;52.100;5.176;2024-02-26T03:05:04;9.85;;;6.38;;
36411;SDS011;22445;52.100;5.176;2024-02-26T03:07:30;8.50;;;6.47;;
36411;SDS011;22445;52.100;5.176;2024-02-26T03:09:55;7.45;;;5.88;;
36411;SDS011;22445;52.100;5.176;2024-02-26T03:12:21;10.77;;;6.25;;
36411;SDS011;22445;52.100;5.176;2024-02-26T03:14:47;9.40;;;5.78;;
36411;SDS011;22445;52.100;5.176;2024-02-26T03:17:12;7.22;;;6.13;;
36411;SDS011;22445;52.100;5.176;2024-02-26T03:19:38;11.95;;;6.40;;
36411;SDS011;22445;52.100;5.176;2024-02-26T03:22:04;8.07;;;6.40;;
36411;SDS011;22445;52.100;5.176;2024-02-26T03:24:29;8.52;;;6.38;;
36411;SDS011;22445;52.100;5.176;2024-02-26T03:26:55;9.75;;;6.75;;
36411;SDS011;22445;52.100;5.176;2024-02-26T03:29:21;11.10;;;6.97;;
36411;SDS011;22445;52.100;5.176;2024-02-26T03:31:47;9.27;;;6.65;;
36411;SDS011;22445;52.100;5.176;2024-02-26T03:34:12;10.43;;;6.97;;
36411;SDS011;22445;52.100;5.176;2024-02-26T03:36:39;8.00;;;6.32;;
36411;SDS011;22445;52.100;5.176;2024-02-26T03:39:06;8.85;;;7.07;;
36411;SDS011;22445;52.100;5.176;2024-02-26T03:41:35;8.63;;;6.78;;
36411;SDS011;22445;52.100;5.176;2024-02-26T03:44:00;9.10;;;7.03;;
36411;SDS011;22445;52.100;5.176;2024-02-26T03:46:26;9.88;;;7.18;;
36411;SDS011;22445;52.100;5.176;2024-02-26T03:48:52;10.77;;;7.15;;
36411;SDS011;22445;52.100;5.176;2024-02-26T03:51:18;9.73;;;6.78;;
36411;SDS011;22445;52.100;5.176;2024-02-26T03:53:43;8.75;;;7.00;;
36411;SDS011;22445;52.100;5.176;2024-02-26T03:56:11;9.60;;;6.47;;
36411;SDS011;22445;52.100;5.176;2024-02-26T03:58:37;8.25;;;7.13;;
36411;SDS011;22445;52.100;5.176;2024-02-26T04:01:02;10.48;;;6.40;;
36411;SDS011;22445;52.100;5.176;2024-02-26T04:03:28;10.27;;;6.80;;
36411;SDS011;22445;52.100;5.176;2024-02-26T04:05:54;10.18;;;7.28;;
36411;SDS011;22445;52.100;5.176;2024-02-26T04:08:19;11.82;;;7.25;;
36411;SDS011;22445;52.100;5.176;2024-02-26T04:10:45;9.82;;;7.43;;
36411;SDS011;22445;52.100;5.176;2024-02-26T04:13:11;8.20;;;6.43;;
36411;SDS011;22445;52.100;5.176;2024-02-26T04:15:36;10.27;;;7.30;;
36411;SDS011;22445;52.100;5.176;2024-02-26T04:18:02;9.70;;;7.25;;
36411;SDS011;22445;52.100;5.176;2024-02-26T04:20:28;10.93;;;7.07;;
36411;SDS011;22445;52.100;5.176;2024-02-26T04:22:54;8.82;;;6.63;;
36411;SDS011;22445;52.100;5.176;2024-02-26T04:25:19;12.40;;;6.85;;
36411;SDS011;22445;52.100;5.176;2024-02-26T04:27:45;12.65;;;7.35;;
36411;SDS011;22445;52.100;5.176;2024-02-26T04:30:11;12.25;;;6.72;;
36411;SDS011;22445;52.100;5.176;2024-02-26T04:32:36;7.63;;;6.22;;
36411;SDS011;22445;52.100;5.176;2024-02-26T04:35:02;10.55;;;7.43;;
36411;SDS011;22445;52.100;5.176;2024-02-26T04:37:28;10.88;;;7.00;;
36411;SDS011;22445;52.100;5.176;2024-02-26T04:40:00;12.45;;;7.25;;
36411;SDS011;22445;52.100;5.176;2024-02-26T04:42:26;13.75;;;8.43;;
36411;SDS011;22445;52.100;5.176;2024-02-26T04:44:52;11.27;;;8.07;;
36411;SDS011;22445;52.100;5.176;2024-02-26T04:47:17;10.13;;;7.32;;
36411;SDS011;22445;52.100;5.176;2024-02-26T04:49:43;9.15;;;7.43;;
36411;SDS011;22445;52.100;5.176;2024-02-26T04:52:08;12.88;;;8.63;;
36411;SDS011;22445;52.100;5.176;2024-02-26T04:54:34;11.32;;;8.23;;
36411;SDS011;22445;52.100;5.176;2024-02-26T04:57:00;12.80;;;9.25;;
36411;SDS011;22445;52.100;5.176;2024-02-26T04:59:25;12.20;;;8.50;;
36411;SDS011;22445;52.100;5.176;2024-02-26T05:01:51;11.18;;;9.15;;
36411;SDS011;22445;52.100;5.176;2024-02-26T05:04:18;11.60;;;8.40;;
36411;SDS011;22445;52.100;5.176;2024-02-26T05:06:44;12.48;;;9.27;;
36411;SDS011;22445;52.100;5.176;2024-02-26T05:09:09;14.30;;;9.23;;
36411;SDS011;22445;52.100;5.176;2024-02-26T05:11:35;12.68;;;9.15;;
36411;SDS011;22445;52.100;5.176;2024-02-26T05:14:01;13.25;;;9.15;;
36411;SDS011;22445;52.100;5.176;2024-02-26T05:16:27;12.52;;;9.48;;
36411;SDS011;22445;52.100;5.176;2024-02-26T05:18:53;12.32;;;9.25;;
36411;SDS011;22445;52.100;5.176;2024-02-26T05:21:18;14.90;;;10.27;;
36411;SDS011;22445;52.100;5.176;2024-02-26T05:23:44;13.18;;;9.77;;
36411;SDS011;22445;52.100;5.176;2024-02-26T05:26:10;14.00;;;9.18;;
36411;SDS011;22445;52.100;5.176;2024-02-26T05:28:36;15.40;;;9.65;;
36411;SDS011;22445;52.100;5.176;2024-02-26T05:31:04;15.25;;;10.25;;
36411;SDS011;22445;52.100;5.176;2024-02-26T05:33:30;13.85;;;9.45;;
36411;SDS011;22445;52.100;5.176;2024-02-26T05:35:56;12.40;;;9.25;;
36411;SDS011;22445;52.100;5.176;2024-02-26T05:38:22;13.45;;;9.48;;
36411;SDS011;22445;52.100;5.176;2024-02-26T05:40:47;12.95;;;9.15;;
36411;SDS011;22445;52.100;5.176;2024-02-26T05:43:13;13.35;;;8.73;;
36411;SDS011;22445;52.100;5.176;2024-02-26T05:45:40;11.98;;;9.07;;
36411;SDS011;22445;52.100;5.176;2024-02-26T05:48:06;12.38;;;8.55;;
36411;SDS011;22445;52.100;5.176;2024-02-26T05:50:32;12.95;;;9.35;;
36411;SDS011;22445;52.100;5.176;2024-02-26T05:52:57;13.90;;;8.73;;
36411;SDS011;22445;52.100;5.176;2024-02-26T05:55:23;15.63;;;9.57;;
36411;SDS011;22445;52.100;5.176;2024-02-26T05:57:49;13.07;;;9.30;;
36411;SDS011;22445;52.100;5.176;2024-02-26T06:00:15;12.60;;;9.38;;
36411;SDS011;22445;52.100;5.176;2024-02-26T06:02:40;14.77;;;10.27;;
36411;SDS011;22445;52.100;5.176;2024-02-26T06:05:06;13.57;;;10.13;;
36411;SDS011;22445;52.100;5.176;2024-02-26T06:07:34;13.68;;;9.48;;
36411;SDS011;22445;52.100;5.176;2024-02-26T06:10:00;15.48;;;9.63;;
36411;SDS011;22445;52.100;5.176;2024-02-26T06:12:26;13.43;;;9.80;;
36411;SDS011;22445;52.100;5.176;2024-02-26T06:14:53;14.98;;;10.10;;
36411;SDS011;22445;52.100;5.176;2024-02-26T06:17:19;14.73;;;9.32;;
36411;SDS011;22445;52.100;5.176;2024-02-26T06:19:45;14.77;;;9.82;;
36411;SDS011;22445;52.100;5.176;2024-02-26T06:22:11;14.25;;;9.82;;
36411;SDS011;22445;52.100;5.176;2024-02-26T06:24:37;14.45;;;9.88;;
36411;SDS011;22445;52.100;5.176;2024-02-26T06:27:03;15.18;;;11.25;;
36411;SDS011;22445;52.100;5.176;2024-02-26T06:29:28;15.27;;;10.95;;
36411;SDS011;22445;52.100;5.176;2024-02-26T06:31:54;18.83;;;11.13;;
36411;SDS011;22445;52.100;5.176;2024-02-26T06:34:20;20.33;;;10.82;;
36411;SDS011;22445;52.100;5.176;2024-02-26T06:36:46;19.00;;;11.43;;
36411;SDS011;22445;52.100;5.176;2024-02-26T06:39:12;18.38;;;11.23;;
36411;SDS011;22445;52.100;5.176;2024-02-26T06:41:38;21.77;;;12.77;;
36411;SDS011;22445;52.100;5.176;2024-02-26T06:44:04;21.33;;;12.75;;
36411;SDS011;22445;52.100;5.176;2024-02-26T06:46:30;21.02;;;13.90;;
36411;SDS011;22445;52.100;5.176;2024-02-26T06:48:56;23.45;;;13.63;;
36411;SDS011;22445;52.100;5.176;2024-02-26T06:51:22;23.98;;;13.20;;
36411;SDS011;22445;52.100;5.176;2024-02-26T06:53:48;26.73;;;14.48;;
36411;SDS011;22445;52.100;5.176;2024-02-26T06:56:14;21.80;;;14.18;;
36411;SDS011;22445;52.100;5.176;2024-02-26T06:58:40;25.23;;;14.00;;
36411;SDS011;22445;52.100;5.176;2024-02-26T07:01:05;26.33;;;15.23;;
36411;SDS011;22445;52.100;5.176;2024-02-26T07:03:33;25.88;;;14.77;;
36411;SDS011;22445;52.100;5.176;2024-02-26T07:05:59;24.48;;;15.70;;
36411;SDS011;22445;52.100;5.176;2024-02-26T07:08:25;27.20;;;16.27;;
36411;SDS011;22445;52.100;5.176;2024-02-26T07:10:51;26.52;;;15.75;;
36411;SDS011;22445;52.100;5.176;2024-02-26T07:13:16;26.75;;;16.13;;
36411;SDS011;22445;52.100;5.176;2024-02-26T07:15:42;32.47;;;18.38;;
36411;SDS011;22445;52.100;5.176;2024-02-26T07:18:08;31.65;;;17.83;;
36411;SDS011;22445;52.100;5.176;2024-02-26T07:20:34;27.85;;;16.80;;
36411;SDS011;22445;52.100;5.176;2024-02-26T07:22:59;31.65;;;17.73;;
36411;SDS011;22445;52.100;5.176;2024-02-26T07:25:25;29.67;;;18.85;;
36411;SDS011;22445;52.100;5.176;2024-02-26T07:27:50;32.20;;;19.20;;
36411;SDS011;22445;52.100;5.176;2024-02-26T07:30:16;28.35;;;17.67;;
36411;SDS011;22445;52.100;5.176;2024-02-26T07:32:44;31.63;;;18.65;;
36411;SDS011;22445;52.100;5.176;2024-02-26T07:35:10;33.47;;;20.52;;
36411;SDS011;22445;52.100;5.176;2024-02-26T07:37:35;34.50;;;20.30;;
36411;SDS011;22445;52.100;5.176;2024-02-26T07:40:01;34.33;;;19.95;;
36411;SDS011;22445;52.100;5.176;2024-02-26T07:42:28;31.15;;;18.70;;
36411;SDS011;22445;52.100;5.176;2024-02-26T07:44:54;28.55;;;18.23;;
36411;SDS011;22445;52.100;5.176;2024-02-26T07:47:20;31.80;;;20.63;;
36411;SDS011;22445;52.100;5.176;2024-02-26T07:49:46;29.52;;;18.73;;
36411;SDS011;22445;52.100;5.176;2024-02-26T07:52:12;30.95;;;19.23;;
36411;SDS011;22445;52.100;5.176;2024-02-26T07:54:37;31.02;;;19.00;;
36411;SDS011;22445;52.100;5.176;2024-02-26T07:57:03;31.50;;;19.13;;
36411;SDS011;22445;52.100;5.176;2024-02-26T07:59:30;29.10;;;18.52;;
36411;SDS011;22445;52.100;5.176;2024-02-26T08:01:56;24.75;;;17.13;;
36411;SDS011;22445;52.100;5.176;2024-02-26T08:04:22;27.00;;;18.27;;
36411;SDS011;22445;52.100;5.176;2024-02-26T08:06:47;23.88;;;15.55;;
36411;SDS011;22445;52.100;5.176;2024-02-26T08:09:13;24.50;;;16.13;;
36411;SDS011;22445;52.100;5.176;2024-02-26T08:11:39;22.73;;;15.98;;
36411;SDS011;22445;52.100;5.176;2024-02-26T08:14:04;22.98;;;15.52;;
36411;SDS011;22445;52.100;5.176;2024-02-26T08:16:30;21.67;;;14.90;;
36411;SDS011;22445;52.100;5.176;2024-02-26T08:18:56;19.88;;;13.43;;
36411;SDS011;22445;52.100;5.176;2024-02-26T08:21:21;18.67;;;13.85;;
36411;SDS011;22445;52.100;5.176;2024-02-26T08:23:47;17.77;;;12.75;;
36411;SDS011;22445;52.100;5.176;2024-02-26T08:26:12;17.63;;;12.18;;
36411;SDS011;22445;52.100;5.176;2024-02-26T08:28:38;21.38;;;13.07;;
36411;SDS011;22445;52.100;5.176;2024-02-26T08:31:04;17.95;;;12.65;;
36411;SDS011;22445;52.100;5.176;2024-02-26T08:33:30;16.92;;;11.48;;
36411;SDS011;22445;52.100;5.176;2024-02-26T08:35:55;16.42;;;11.05;;
36411;SDS011;22445;52.100;5.176;2024-02-26T08:38:21;15.63;;;11.10;;
36411;SDS011;22445;52.100;5.176;2024-02-26T08:40:48;13.55;;;10.32;;
36411;SDS011;22445;52.100;5.176;2024-02-26T08:43:13;13.25;;;9.85;;
36411;SDS011;22445;52.100;5.176;2024-02-26T08:45:39;15.10;;;10.82;;
36411;SDS011;22445;52.100;5.176;2024-02-26T08:48:05;13.35;;;9.65;;
36411;SDS011;22445;52.100;5.176;2024-02-26T08:50:31;12.25;;;9.15;;
36411;SDS011;22445;52.100;5.176;2024-02-26T08:52:56;12.35;;;9.02;;
36411;SDS011;22445;52.100;5.176;2024-02-26T08:55:22;12.02;;;8.82;;
36411;SDS011;22445;52.100;5.176;2024-02-26T08:57:48;11.50;;;8.95;;
36411;SDS011;22445;52.100;5.176;2024-02-26T09:00:13;12.20;;;8.65;;
36411;SDS011;22445;52.100;5.176;2024-02-26T09:02:40;12.38;;;8.77;;
36411;SDS011;22445;52.100;5.176;2024-02-26T09:05:09;12.73;;;9.18;;
36411;SDS011;22445;52.100;5.176;2024-02-26T09:07:35;9.60;;;7.43;;
36411;SDS011;22445;52.100;5.176;2024-02-26T09:10:01;14.65;;;9.15;;
36411;SDS011;22445;52.100;5.176;2024-02-26T09:12:27;11.40;;;7.18;;
36411;SDS011;22445;52.100;5.176;2024-02-26T09:14:53;10.13;;;7.47;;
36411;SDS011;22445;52.100;5.176;2024-02-26T09:17:21;9.27;;;7.75;;
36411;SDS011;22445;52.100;5.176;2024-02-26T09:19:46;11.75;;;7.53;;
36411;SDS011;22445;52.100;5.176;2024-02-26T09:22:12;10.90;;;7.47;;
36411;SDS011;22445;52.100;5.176;2024-02-26T09:24:38;9.32;;;6.88;;
36411;SDS011;22445;52.100;5.176;2024-02-26T09:27:04;9.75;;;7.00;;
36411;SDS011;22445;52.100;5.176;2024-02-26T09:29:29;12.00;;;7.60;;
36411;SDS011;22445;52.100;5.176;2024-02-26T09:31:55;9.18;;;7.45;;
36411;SDS011;22445;52.100;5.176;2024-02-26T09:34:21;9.88;;;6.95;;
36411;SDS011;22445;52.100;5.176;2024-02-26T09:36:46;8.95;;;6.55;;
36411;SDS011;22445;52.100;5.176;2024-02-26T09:39:12;8.88;;;6.85;;
36411;SDS011;22445;52.100;5.176;2024-02-26T09:41:39;8.13;;;6.20;;
36411;SDS011;22445;52.100;5.176;2024-02-26T09:44:05;8.30;;;6.25;;
36411;SDS011;22445;52.100;5.176;2024-02-26T09:46:31;10.70;;;5.90;;
36411;SDS011;22445;52.100;5.176;2024-02-26T09:48:57;8.55;;;6.20;;
36411;SDS011;22445;52.100;5.176;2024-02-26T09:51:22;10.38;;;6.70;;
36411;SDS011;22445;52.100;5.176;2024-02-26T09:53:51;8.40;;;6.88;;
36411;SDS011;22445;52.100;5.176;2024-02-26T09:56:17;7.85;;;6.03;;
36411;SDS011;22445;52.100;5.176;2024-02-26T09:58:43;8.00;;;5.43;;
36411;SDS011;22445;52.100;5.176;2024-02-26T10:01:11;11.50;;;6.00;;
36411;SDS011;22445;52.100;5.176;2024-02-26T10:03:39;9.30;;;6.10;;
36411;SDS011;22445;52.100;5.176;2024-02-26T10:06:09;8.63;;;6.18;;
36411;SDS011;22445;52.100;5.176;2024-02-26T10:08:38;11.05;;;7.43;;
36411;SDS011;22445;52.100;5.176;2024-02-26T10:11:07;11.13;;;6.05;;
36411;SDS011;22445;52.100;5.176;2024-02-26T10:13:36;9.57;;;6.70;;
36411;SDS011;22445;52.100;5.176;2024-02-26T10:16:02;8.68;;;6.20;;
36411;SDS011;22445;52.100;5.176;2024-02-26T10:21:13;6.95;;;5.07;;
36411;SDS011;22445;52.100;5.176;2024-02-26T10:23:41;8.43;;;5.85;;
36411;SDS011;22445;52.100;5.176;2024-02-26T10:26:07;8.18;;;5.60;;
36411;SDS011;22445;52.100;5.176;2024-02-26T10:28:33;9.20;;;6.68;;
36411;SDS011;22445;52.100;5.176;2024-02-26T10:30:59;8.15;;;6.25;;
36411;SDS011;22445;52.100;5.176;2024-02-26T10:33:25;9.10;;;6.53;;
36411;SDS011;22445;52.100;5.176;2024-02-26T10:35:51;8.50;;;6.47;;
36411;SDS011;22445;52.100;5.176;2024-02-26T10:38:19;9.07;;;5.90;;
36411;SDS011;22445;52.100;5.176;2024-02-26T10:40:46;8.27;;;5.75;;
36411;SDS011;22445;52.100;5.176;2024-02-26T10:43:13;9.15;;;6.53;;
36411;SDS011;22445;52.100;5.176;2024-02-26T10:45:42;8.40;;;5.85;;
36411;SDS011;22445;52.100;5.176;2024-02-26T10:48:12;8.65;;;5.82;;
36411;SDS011;22445;52.100;5.176;2024-02-26T10:50:39;8.80;;;5.90;;
36411;SDS011;22445;52.100;5.176;2024-02-26T10:53:05;8.25;;;6.22;;
36411;SDS011;22445;52.100;5.176;2024-02-26T10:55:35;7.53;;;5.65;;
36411;SDS011;22445;52.100;5.176;2024-02-26T10:58:02;7.97;;;5.97;;
36411;SDS011;22445;52.100;5.176;2024-02-26T11:00:28;7.70;;;6.07;;
36411;SDS011;22445;52.100;5.176;2024-02-26T11:02:54;8.05;;;5.95;;
36411;SDS011;22445;52.100;5.176;2024-02-26T11:05:20;8.93;;;6.15;;
36411;SDS011;22445;52.100;5.176;2024-02-26T11:07:46;7.65;;;5.57;;
36411;SDS011;22445;52.100;5.176;2024-02-26T11:10:13;10.95;;;6.18;;
36411;SDS011;22445;52.100;5.176;2024-02-26T11:12:39;7.18;;;5.57;;
36411;SDS011;22445;52.100;5.176;2024-02-26T11:15:07;9.50;;;5.55;;
36411;SDS011;22445;52.100;5.176;2024-02-26T11:17:33;6.70;;;5.47;;
36411;SDS011;22445;52.100;5.176;2024-02-26T11:20:00;7.55;;;5.32;;
36411;SDS011;22445;52.100;5.176;2024-02-26T11:22:28;7.55;;;5.88;;
36411;SDS011;22445;52.100;5.176;2024-02-26T11:24:54;8.32;;;5.93;;
36411;SDS011;22445;52.100;5.176;2024-02-26T11:27:29;7.50;;;5.50;;
36411;SDS011;22445;52.100;5.176;2024-02-26T11:29:57;6.60;;;5.80;;
36411;SDS011;22445;52.100;5.176;2024-02-26T11:32:27;6.63;;;5.63;;
36411;SDS011;22445;52.100;5.176;2024-02-26T11:34:55;7.43;;;5.45;;
36411;SDS011;22445;52.100;5.176;2024-02-26T11:37:22;7.95;;;5.97;;
36411;SDS011;22445;52.100;5.176;2024-02-26T11:39:48;9.48;;;5.80;;
36411;SDS011;22445;52.100;5.176;2024-02-26T11:42:14;7.18;;;5.55;;
36411;SDS011;22445;52.100;5.176;2024-02-26T11:44:40;7.50;;;6.03;;
36411;SDS011;22445;52.100;5.176;2024-02-26T11:47:09;8.32;;;5.68;;
36411;SDS011;22445;52.100;5.176;2024-02-26T11:49:38;7.65;;;5.78;;
36411;SDS011;22445;52.100;5.176;2024-02-26T11:52:05;8.20;;;6.15;;
36411;SDS011;22445;52.100;5.176;2024-02-26T12:00:11;7.85;;;5.15;;
36411;SDS011;22445;52.100;5.176;2024-02-26T12:02:39;8.93;;;6.05;;
36411;SDS011;22445;52.100;5.176;2024-02-26T12:05:31;6.97;;;5.57;;
36411;SDS011;22445;52.100;5.176;2024-02-26T12:08:04;7.18;;;5.80;;
36411;SDS011;22445;52.100;5.176;2024-02-26T12:10:37;7.07;;;5.45;;
36411;SDS011;22445;52.100;5.176;2024-02-26T12:13:07;6.68;;;5.75;;
36411;SDS011;22445;52.100;5.176;2024-02-26T12:15:37;6.88;;;5.38;;
36411;SDS011;22445;52.100;5.176;2024-02-26T12:18:05;6.72;;;5.43;;
36411;SDS011;22445;52.100;5.176;2024-02-26T12:20:33;7.28;;;5.65;;
36411;SDS011;22445;52.100;5.176;2024-02-26T12:22:59;7.55;;;5.07;;
36411;SDS011;22445;52.100;5.176;2024-02-26T12:25:26;7.30;;;4.90;;
36411;SDS011;22445;52.100;5.176;2024-02-26T12:27:53;6.38;;;5.20;;
36411;SDS011;22445;52.100;5.176;2024-02-26T12:30:19;8.82;;;5.10;;
36411;SDS011;22445;52.100;5.176;2024-02-26T12:32:50;7.43;;;5.03;;
36411;SDS011;22445;52.100;5.176;2024-02-26T12:35:17;6.72;;;5.10;;
36411;SDS011;22445;52.100;5.176;2024-02-26T12:37:42;9.65;;;5.72;;
36411;SDS011;22445;52.100;5.176;2024-02-26T12:40:08;7.35;;;5.55;;
36411;SDS011;22445;52.100;5.176;2024-02-26T12:42:35;5.65;;;5.07;;
36411;SDS011;22445;52.100;5.176;2024-02-26T12:45:07;7.68;;;5.80;;
36411;SDS011;22445;52.100;5.176;2024-02-26T12:47:40;6.82;;;5.18;;
36411;SDS011;22445;52.100;5.176;2024-02-26T12:50:07;7.38;;;5.03;;
36411;SDS011;22445;52.100;5.176;2024-02-26T12:52:34;6.97;;;5.22;;
36411;SDS011;22445;52.100;5.176;2024-02-26T12:55:03;6.47;;;5.45;;
36411;SDS011;22445;52.100;5.176;2024-02-26T12:57:33;7.07;;;5.30;;
36411;SDS011;22445;52.100;5.176;2024-02-26T13:00:00;6.40;;;4.80;;
36411;SDS011;22445;52.100;5.176;2024-02-26T13:02:26;5.93;;;4.78;;
36411;SDS011;22445;52.100;5.176;2024-02-26T13:04:53;9.48;;;5.03;;
36411;SDS011;22445;52.100;5.176;2024-02-26T13:07:20;6.20;;;4.93;;
36411;SDS011;22445;52.100;5.176;2024-02-26T13:09:46;6.50;;;5.00;;
36411;SDS011;22445;52.100;5.176;2024-02-26T13:12:11;7.10;;;4.82;;
36411;SDS011;22445;52.100;5.176;2024-02-26T13:14:38;5.07;;;4.22;;
36411;SDS011;22445;52.100;5.176;2024-02-26T13:17:03;7.53;;;4.68;;
36411;SDS011;22445;52.100;5.176;2024-02-26T13:19:29;8.43;;;5.70;;
36411;SDS011;22445;52.100;5.176;2024-02-26T13:21:55;5.07;;;3.78;;
36411;SDS011;22445;52.100;5.176;2024-02-26T13:24:21;5.78;;;4.50;;
36411;SDS011;22445;52.100;5.176;2024-02-26T13:26:53;8.40;;;4.97;;
36411;SDS011;22445;52.100;5.176;2024-02-26T13:29:19;5.20;;;4.25;;
36411;SDS011;22445;52.100;5.176;2024-02-26T13:31:46;7.82;;;4.22;;
36411;SDS011;22445;52.100;5.176;2024-02-26T13:34:22;6.30;;;4.28;;
36411;SDS011;22445;52.100;5.176;2024-02-26T13:36:52;5.15;;;3.95;;
36411;SDS011;22445;52.100;5.176;2024-02-26T13:39:22;6.20;;;4.85;;
36411;SDS011;22445;52.100;5.176;2024-02-26T13:41:49;6.50;;;4.28;;
36411;SDS011;22445;52.100;5.176;2024-02-26T13:44:15;6.18;;;4.22;;
36411;SDS011;22445;52.100;5.176;2024-02-26T13:46:40;5.32;;;4.30;;
36411;SDS011;22445;52.100;5.176;2024-02-26T13:49:07;7.93;;;4.22;;
36411;SDS011;22445;52.100;5.176;2024-02-26T13:51:34;5.85;;;4.30;;
36411;SDS011;22445;52.100;5.176;2024-02-26T13:54:00;5.50;;;4.05;;
36411;SDS011;22445;52.100;5.176;2024-02-26T13:56:27;4.38;;;3.45;;
36411;SDS011;22445;52.100;5.176;2024-02-26T13:58:53;6.10;;;4.07;;
36411;SDS011;22445;52.100;5.176;2024-02-26T14:01:18;4.35;;;3.88;;
36411;SDS011;22445;52.100;5.176;2024-02-26T14:03:44;5.65;;;4.47;;
36411;SDS011;22445;52.100;5.176;2024-02-26T14:06:10;5.28;;;4.07;;
36411;SDS011;22445;52.100;5.176;2024-02-26T14:08:36;4.70;;;3.67;;
36411;SDS011;22445;52.100;5.176;2024-02-26T14:11:02;4.72;;;3.90;;
36411;SDS011;22445;52.100;5.176;2024-02-26T14:13:28;4.30;;;3.58;;
36411;SDS011;22445;52.100;5.176;2024-02-26T14:15:53;4.47;;;3.60;;
36411;SDS011;22445;52.100;5.176;2024-02-26T14:18:19;4.07;;;3.67;;
36411;SDS011;22445;52.100;5.176;2024-02-26T14:20:45;5.03;;;3.75;;
36411;SDS011;22445;52.100;5.176;2024-02-26T14:23:11;4.35;;;3.63;;
36411;SDS011;22445;52.100;5.176;2024-02-26T14:25:36;3.97;;;2.97;;
36411;SDS011;22445;52.100;5.176;2024-02-26T14:28:02;3.75;;;3.17;;
36411;SDS011;22445;52.100;5.176;2024-02-26T14:30:28;4.25;;;3.33;;
36411;SDS011;22445;52.100;5.176;2024-02-26T14:32:54;3.22;;;2.88;;
36411;SDS011;22445;52.100;5.176;2024-02-26T14:35:20;3.90;;;3.25;;
36411;SDS011;22445;52.100;5.176;2024-02-26T14:37:46;3.72;;;3.15;;
36411;SDS011;22445;52.100;5.176;2024-02-26T14:40:13;3.00;;;2.70;;
36411;SDS011;22445;52.100;5.176;2024-02-26T14:42:39;4.10;;;3.00;;
36411;SDS011;22445;52.100;5.176;2024-02-26T14:45:05;3.75;;;2.75;;